Time;durP1;ratioP1;P1;durP2;ratioP2;P2;SDS_P1;SDS_P2;PMS_P1;PMS_P2;Temp;Humidity;BMP_temperature;BMP_pressure;BME280_temperature;BME280_humidity;BME280_pressure;Samples;Min_cycle;Max_cycle;Signal;HPM_P1;HPM_P2
2022/03/27 00:01:50;;;;;;;13.20;7.93;;;8.10;99.90;;;;;;5039579;28;20134;-82
2022/03/27 00:04:17;;;;;;;13.30;8.05;;;8.10;99.90;;;;;;5040605;28;20041;-82
2022/03/27 00:06:43;;;;;;;14.95;7.82;;;8.20;99.90;;;;;;5040605;28;20459;-82
2022/03/27 00:09:10;;;;;;;11.35;7.80;;;8.20;99.90;;;;;;5041267;28;20053;-82
2022/03/27 00:11:37;;;;;;;9.88;7.57;;;8.20;99.90;;;;;;5040021;28;20050;-82
2022/03/27 00:14:06;;;;;;;10.07;7.07;;;8.20;99.90;;;;;;5040593;28;20132;-82
2022/03/27 00:16:34;;;;;;;10.57;7.82;;;8.20;99.90;;;;;;5040294;28;20140;-82
2022/03/27 00:19:01;;;;;;;11.95;7.63;;;8.10;99.90;;;;;;5041998;28;20420;-82
2022/03/27 00:21:28;;;;;;;10.07;7.57;;;8.10;99.90;;;;;;5039325;28;20088;-82
2022/03/27 00:23:55;;;;;;;12.75;8.07;;;8.10;99.90;;;;;;5039312;28;20045;-82
2022/03/27 00:26:22;;;;;;;10.05;7.38;;;8.10;99.90;;;;;;5039558;28;20059;-82
2022/03/27 00:28:50;;;;;;;10.20;7.88;;;8.20;99.90;;;;;;5039400;28;20049;-82
2022/03/27 00:31:17;;;;;;;12.10;7.88;;;8.10;99.90;;;;;;5038963;28;20084;-82
2022/03/27 00:33:46;;;;;;;14.50;8.32;;;8.10;99.90;;;;;;5039111;28;20395;-82
2022/03/27 00:36:14;;;;;;;12.00;7.53;;;8.10;99.90;;;;;;5040426;28;20045;-82
2022/03/27 00:38:42;;;;;;;13.52;8.10;;;8.20;99.90;;;;;;5039129;28;20495;-82
2022/03/27 00:41:09;;;;;;;11.27;6.70;;;8.20;99.90;;;;;;5038935;28;20116;-82
2022/03/27 00:43:36;;;;;;;11.88;7.45;;;8.20;99.90;;;;;;5039733;28;20478;-82
2022/03/27 00:46:03;;;;;;;10.52;7.60;;;8.10;99.90;;;;;;5040422;28;20117;-82
2022/03/27 00:48:30;;;;;;;11.15;7.57;;;8.10;99.90;;;;;;5041096;28;20052;-82
2022/03/27 00:50:57;;;;;;;12.55;7.20;;;8.20;99.90;;;;;;5040124;28;20506;-82
2022/03/27 00:53:24;;;;;;;9.57;7.70;;;8.30;99.90;;;;;;5040433;28;20072;-82
2022/03/27 00:55:51;;;;;;;11.40;7.53;;;8.30;99.90;;;;;;5038548;28;20073;-80
2022/03/27 00:58:18;;;;;;;9.38;6.78;;;8.20;99.90;;;;;;5038718;28;20569;-82
2022/03/27 01:00:51;;;;;;;12.13;7.75;;;8.20;99.90;;;;;;5038326;28;20132;-83
2022/03/27 01:03:20;;;;;;;9.05;7.72;;;8.10;99.90;;;;;;5039859;28;20418;-81
2022/03/27 01:05:48;;;;;;;8.18;7.38;;;8.10;99.90;;;;;;5038492;28;20046;-81
2022/03/27 01:08:16;;;;;;;10.85;7.85;;;8.10;99.90;;;;;;5037859;28;20087;-82
2022/03/27 01:10:43;;;;;;;10.88;7.75;;;8.20;99.90;;;;;;5038717;28;20084;-82
2022/03/27 01:13:16;;;;;;;10.25;7.63;;;8.20;99.90;;;;;;5039708;28;20063;-82
2022/03/27 01:15:53;;;;;;;14.02;8.35;;;8.10;99.90;;;;;;5038773;28;20557;-82
2022/03/27 01:18:21;;;;;;;9.77;7.47;;;8.10;99.90;;;;;;5037000;28;20045;-82
2022/03/27 01:20:49;;;;;;;10.48;7.57;;;8.00;99.90;;;;;;5038052;28;20112;-82
2022/03/27 01:23:16;;;;;;;11.43;7.47;;;8.10;99.90;;;;;;5039696;28;20072;-82
2022/03/27 01:25:44;;;;;;;11.32;7.95;;;8.20;99.90;;;;;;5038813;28;20077;-82
2022/03/27 01:28:15;;;;;;;12.73;7.75;;;8.30;99.90;;;;;;5037842;28;20049;-82
2022/03/27 01:30:42;;;;;;;18.05;8.95;;;8.30;99.90;;;;;;5039173;28;20133;-82
2022/03/27 01:33:13;;;;;;;11.60;8.32;;;8.40;99.90;;;;;;5038795;28;20077;-82
2022/03/27 01:35:40;;;;;;;12.15;8.05;;;8.40;99.90;;;;;;5040687;28;20053;-82
2022/03/27 01:38:07;;;;;;;10.48;7.80;;;8.40;99.90;;;;;;5038769;28;20084;-82
2022/03/27 01:40:34;;;;;;;9.48;7.60;;;8.40;99.90;;;;;;5037703;28;20132;-82
2022/03/27 01:43:00;;;;;;;11.45;7.78;;;8.40;99.90;;;;;;5037149;28;20137;-82
2022/03/27 01:45:31;;;;;;;11.57;7.32;;;8.40;99.90;;;;;;5037822;28;20081;-80
2022/03/27 01:47:58;;;;;;;12.65;7.70;;;8.40;99.90;;;;;;5037018;28;20046;-82
2022/03/27 01:50:25;;;;;;;10.85;7.80;;;8.40;99.90;;;;;;5037809;28;20072;-82
2022/03/27 01:52:52;;;;;;;11.82;7.45;;;8.40;99.90;;;;;;5037408;28;20480;-82
2022/03/27 01:55:18;;;;;;;10.25;7.22;;;8.40;99.90;;;;;;5037961;28;20053;-82
2022/03/27 01:57:45;;;;;;;15.45;7.63;;;8.40;99.90;;;;;;5038112;28;20045;-78
2022/03/27 02:00:14;;;;;;;9.60;7.63;;;8.40;99.90;;;;;;5037583;28;20052;-78
2022/03/27 02:02:41;;;;;;;9.85;7.60;;;8.30;99.90;;;;;;5036622;28;20049;-79
2022/03/27 02:05:08;;;;;;;13.95;7.45;;;8.40;99.90;;;;;;5035900;28;20414;-78
2022/03/27 02:07:43;;;;;;;11.65;7.72;;;8.40;99.90;;;;;;5036647;28;20060;-79
2022/03/27 02:10:10;;;;;;;12.25;7.97;;;8.40;99.90;;;;;;5037735;28;20144;-78
2022/03/27 02:12:37;;;;;;;10.95;7.03;;;8.40;99.90;;;;;;5036821;28;20049;-78
2022/03/27 02:15:08;;;;;;;8.88;7.40;;;8.40;99.90;;;;;;5036136;28;20076;-80
2022/03/27 02:17:38;;;;;;;15.55;7.07;;;8.50;99.90;;;;;;5035997;28;20045;-79
2022/03/27 02:20:09;;;;;;;10.40;7.20;;;8.50;99.90;;;;;;5037363;28;20347;-79
2022/03/27 02:22:36;;;;;;;11.80;7.28;;;8.40;99.90;;;;;;5035451;28;20049;-79
2022/03/27 02:25:04;;;;;;;11.05;7.18;;;8.40;99.90;;;;;;5035528;28;20049;-78
2022/03/27 02:27:31;;;;;;;11.63;7.75;;;8.40;99.90;;;;;;5035607;28;20132;-79
2022/03/27 02:29:58;;;;;;;12.30;7.40;;;8.50;99.90;;;;;;5040180;28;20128;-78
2022/03/27 02:32:24;;;;;;;11.35;7.43;;;8.50;99.90;;;;;;5040143;28;20132;-78
2022/03/27 02:34:51;;;;;;;13.80;7.72;;;8.50;99.90;;;;;;5041639;28;20050;-78
2022/03/27 02:37:18;;;;;;;9.63;7.05;;;8.30;99.90;;;;;;5040171;28;20084;-83
2022/03/27 02:39:45;;;;;;;10.38;8.13;;;8.40;99.90;;;;;;5041419;28;20049;-82
2022/03/27 02:42:12;;;;;;;10.98;7.93;;;8.40;99.90;;;;;;5039732;28;20081;-82
2022/03/27 02:44:38;;;;;;;12.40;7.82;;;8.40;99.90;;;;;;5040083;28;20507;-80
2022/03/27 02:47:05;;;;;;;13.13;7.63;;;8.40;99.90;;;;;;5040360;28;20149;-82
2022/03/27 02:49:32;;;;;;;9.98;7.53;;;8.50;99.90;;;;;;5042030;28;20049;-82
2022/03/27 02:51:59;;;;;;;11.23;7.45;;;8.40;99.90;;;;;;5043548;28;20109;-81
2022/03/27 02:54:26;;;;;;;14.35;7.38;;;8.40;99.90;;;;;;5042569;28;20050;-82
2022/03/27 02:56:52;;;;;;;13.77;8.05;;;8.40;99.90;;;;;;5039356;28;20073;-82
2022/03/27 02:59:21;;;;;;;12.68;7.35;;;8.30;99.90;;;;;;5040326;28;20128;-81
2022/03/27 03:01:48;;;;;;;7.90;7.00;;;8.40;99.90;;;;;;5039522;28;20084;-82
2022/03/27 03:04:16;;;;;;;9.73;7.45;;;8.50;99.90;;;;;;5040666;28;20050;-82
2022/03/27 03:06:43;;;;;;;12.43;7.65;;;8.50;99.90;;;;;;5038922;28;20080;-81
2022/03/27 03:09:10;;;;;;;8.20;7.05;;;8.50;99.90;;;;;;5040825;28;20081;-82
2022/03/27 03:11:37;;;;;;;9.63;7.60;;;8.60;99.90;;;;;;5038876;28;20110;-82
2022/03/27 03:14:04;;;;;;;9.05;7.65;;;8.50;99.90;;;;;;5040178;28;20052;-82
2022/03/27 03:16:51;;;;;;;10.05;7.65;;;8.50;99.90;;;;;;5039281;28;20056;-82
2022/03/27 03:19:18;;;;;;;9.93;7.05;;;8.60;99.90;;;;;;5040064;28;20519;-82
2022/03/27 03:21:45;;;;;;;17.88;7.63;;;8.60;99.90;;;;;;5038968;28;20081;-82
2022/03/27 03:24:12;;;;;;;13.50;7.55;;;8.60;99.90;;;;;;5040204;28;20045;-82
2022/03/27 03:26:39;;;;;;;9.38;7.25;;;8.60;99.90;;;;;;5038942;28;20132;-81
2022/03/27 03:29:06;;;;;;;10.15;7.15;;;8.50;99.90;;;;;;5039932;28;20081;-82
2022/03/27 03:31:32;;;;;;;9.30;7.60;;;8.50;99.90;;;;;;5039086;28;20081;-82
2022/03/27 03:33:59;;;;;;;14.38;6.90;;;8.50;99.90;;;;;;5039321;28;20053;-82
2022/03/27 03:36:26;;;;;;;14.15;7.57;;;8.40;99.90;;;;;;5038821;28;20089;-82
2022/03/27 03:38:52;;;;;;;15.40;7.75;;;8.40;99.90;;;;;;5039991;28;20088;-80
2022/03/27 03:41:19;;;;;;;13.25;6.97;;;8.40;99.90;;;;;;5039428;28;20109;-80
2022/03/27 03:44:07;;;;;;;9.23;7.13;;;8.40;99.90;;;;;;5038796;28;20052;-82
2022/03/27 03:46:34;;;;;;;8.90;6.90;;;8.40;99.90;;;;;;5038620;28;20077;-82
2022/03/27 03:49:03;;;;;;;14.98;7.50;;;8.40;99.90;;;;;;5038395;28;20076;-82
2022/03/27 03:51:30;;;;;;;9.30;6.50;;;8.40;99.90;;;;;;5038580;28;20085;-81
2022/03/27 03:53:57;;;;;;;8.82;6.95;;;8.40;99.90;;;;;;5039059;28;20091;-81
2022/03/27 03:56:23;;;;;;;8.57;6.97;;;8.40;99.90;;;;;;5039841;28;20141;-82
2022/03/27 03:58:50;;;;;;;11.55;7.43;;;8.30;99.90;;;;;;5038736;28;20558;-82
2022/03/27 04:01:17;;;;;;;13.30;7.20;;;8.30;99.90;;;;;;5038742;28;20153;-82
2022/03/27 04:03:44;;;;;;;8.88;7.00;;;8.30;99.90;;;;;;5038781;28;20057;-81
2022/03/27 04:06:10;;;;;;;9.57;6.85;;;8.30;99.90;;;;;;5039202;28;20562;-82
2022/03/27 04:08:37;;;;;;;11.65;7.38;;;8.30;99.90;;;;;;5041347;28;20517;-82
2022/03/27 04:11:04;;;;;;;9.02;7.60;;;8.30;99.90;;;;;;5042558;28;20060;-81
2022/03/27 04:13:31;;;;;;;8.52;7.00;;;8.30;99.90;;;;;;5038261;28;20077;-82
2022/03/27 04:15:58;;;;;;;7.97;7.18;;;8.30;99.90;;;;;;5037997;28;20057;-82
2022/03/27 04:18:25;;;;;;;9.75;8.35;;;8.20;99.90;;;;;;5038149;28;20170;-82
2022/03/27 04:20:51;;;;;;;9.23;7.97;;;8.10;99.90;;;;;;5037648;28;20145;-82
2022/03/27 04:23:18;;;;;;;10.70;7.82;;;8.00;99.90;;;;;;5037909;28;20103;-79
2022/03/27 04:25:46;;;;;;;10.95;7.68;;;8.10;99.90;;;;;;5039524;28;20507;-79
2022/03/27 04:28:13;;;;;;;14.55;6.93;;;8.00;99.90;;;;;;5038059;28;20410;-79
2022/03/27 04:30:39;;;;;;;11.68;7.90;;;8.10;99.90;;;;;;5038180;28;20131;-81
2022/03/27 04:33:08;;;;;;;10.15;7.25;;;8.10;99.90;;;;;;5038277;28;20060;-79
2022/03/27 04:35:35;;;;;;;13.88;7.63;;;8.10;99.90;;;;;;5037442;28;20057;-79
2022/03/27 04:38:02;;;;;;;10.50;7.35;;;8.20;99.90;;;;;;5039672;28;20081;-80
2022/03/27 04:40:29;;;;;;;14.90;7.05;;;8.20;99.90;;;;;;5037997;28;20124;-79
2022/03/27 04:42:55;;;;;;;12.63;7.88;;;8.20;99.90;;;;;;5040340;28;20069;-81
2022/03/27 04:45:22;;;;;;;11.43;7.80;;;8.10;99.90;;;;;;5040444;28;20069;-82
2022/03/27 04:47:49;;;;;;;9.27;7.53;;;8.00;99.90;;;;;;5037581;28;20525;-82
2022/03/27 04:50:16;;;;;;;8.57;7.60;;;8.10;99.90;;;;;;5037513;28;20053;-81
2022/03/27 04:52:43;;;;;;;12.88;7.95;;;8.10;99.90;;;;;;5035796;28;20132;-82
2022/03/27 04:55:10;;;;;;;15.13;8.32;;;8.10;99.90;;;;;;5036596;28;20471;-82
2022/03/27 04:57:38;;;;;;;10.32;8.25;;;8.00;99.90;;;;;;5037697;28;20133;-83
2022/03/27 05:00:11;;;;;;;9.82;8.13;;;8.10;99.90;;;;;;5036712;28;20060;-82
2022/03/27 05:02:38;;;;;;;16.15;8.18;;;8.00;99.90;;;;;;5036712;28;20128;-83
2022/03/27 05:05:08;;;;;;;9.43;7.20;;;8.00;99.90;;;;;;5035882;28;20049;-81
2022/03/27 05:07:39;;;;;;;17.60;7.82;;;8.10;99.90;;;;;;5038013;28;20467;-82
2022/03/27 05:10:07;;;;;;;12.73;7.95;;;8.20;99.90;;;;;;5035926;28;20553;-82
2022/03/27 05:12:34;;;;;;;10.73;8.00;;;8.20;99.90;;;;;;5038481;28;20582;-82
2022/03/27 05:15:02;;;;;;;14.52;8.10;;;8.30;99.90;;;;;;5037012;28;20049;-83
2022/03/27 05:17:28;;;;;;;10.45;7.78;;;8.30;99.90;;;;;;5037443;28;20099;-83
2022/03/27 05:19:55;;;;;;;14.15;8.55;;;8.30;99.90;;;;;;5037442;28;20084;-83
2022/03/27 05:22:22;;;;;;;18.05;7.82;;;8.30;99.90;;;;;;5038937;28;20073;-83
2022/03/27 05:24:49;;;;;;;12.02;8.50;;;8.30;99.90;;;;;;5038483;28;20487;-83
2022/03/27 05:27:19;;;;;;;12.90;8.48;;;8.30;99.90;;;;;;5040968;28;20136;-81
2022/03/27 05:29:46;;;;;;;13.38;8.57;;;8.30;99.90;;;;;;5036365;28;20109;-83
2022/03/27 05:32:13;;;;;;;13.52;7.88;;;8.30;99.90;;;;;;5036226;28;20109;-82
2022/03/27 05:34:40;;;;;;;12.85;7.57;;;8.40;99.90;;;;;;5036259;28;20491;-81
2022/03/27 05:37:07;;;;;;;15.02;7.97;;;8.40;99.90;;;;;;5037251;28;20049;-82
2022/03/27 05:39:34;;;;;;;11.35;7.68;;;8.40;99.90;;;;;;5035159;28;20052;-82
2022/03/27 05:42:00;;;;;;;9.38;7.35;;;8.30;99.90;;;;;;5036936;28;20132;-82
2022/03/27 05:44:27;;;;;;;15.27;8.60;;;8.20;99.90;;;;;;5031607;28;20089;-82
2022/03/27 05:46:54;;;;;;;19.05;8.40;;;8.30;99.90;;;;;;5029546;28;20120;-82
2022/03/27 05:49:20;;;;;;;11.68;8.05;;;8.20;99.90;;;;;;5035298;28;20092;-82
2022/03/27 05:51:47;;;;;;;13.20;8.18;;;8.30;99.90;;;;;;5035634;28;20064;-83
2022/03/27 05:54:14;;;;;;;14.65;7.85;;;8.20;99.90;;;;;;5037388;28;20128;-82
2022/03/27 05:56:41;;;;;;;9.70;7.65;;;8.30;99.90;;;;;;5036348;28;20117;-82
2022/03/27 05:59:08;;;;;;;12.73;8.05;;;8.30;99.90;;;;;;5037322;28;20046;-83
2022/03/27 06:01:35;;;;;;;14.45;8.95;;;8.40;99.90;;;;;;5037452;28;20148;-82
2022/03/27 06:04:02;;;;;;;15.75;9.00;;;8.40;99.90;;;;;;5016473;28;20448;-82
2022/03/27 06:06:29;;;;;;;12.07;8.38;;;8.50;99.90;;;;;;5016377;28;20137;-82
2022/03/27 06:08:57;;;;;;;8.73;7.47;;;8.50;99.90;;;;;;5015457;28;20133;-82
2022/03/27 06:11:24;;;;;;;13.40;8.02;;;8.50;99.90;;;;;;5015934;28;20057;-82
2022/03/27 06:13:52;;;;;;;11.75;7.38;;;8.60;99.90;;;;;;5016214;28;20046;-82
2022/03/27 06:16:20;;;;;;;13.60;8.13;;;8.60;99.90;;;;;;5016158;28;20133;-79
2022/03/27 06:18:47;;;;;;;11.30;8.23;;;8.60;99.90;;;;;;5016608;28;20480;-79
2022/03/27 06:21:15;;;;;;;9.85;7.68;;;8.70;99.90;;;;;;5016700;28;20045;-80
2022/03/27 06:23:45;;;;;;;11.68;7.43;;;8.70;99.90;;;;;;5016768;28;20045;-79
2022/03/27 06:26:12;;;;;;;12.57;8.05;;;8.80;99.90;;;;;;5017670;28;20050;-79
2022/03/27 06:28:39;;;;;;;13.20;7.47;;;8.90;99.90;;;;;;5016770;28;20081;-79
2022/03/27 06:31:06;;;;;;;16.17;8.23;;;8.90;99.90;;;;;;5018304;28;20133;-80
2022/03/27 06:33:32;;;;;;;16.15;7.75;;;9.00;99.90;;;;;;5017661;28;20511;-79
2022/03/27 06:36:01;;;;;;;9.18;8.00;;;9.20;99.90;;;;;;5018117;28;20129;-80
2022/03/27 06:38:31;;;;;;;10.13;7.35;;;9.30;99.90;;;;;;5017111;28;20129;-83
2022/03/27 06:40:58;;;;;;;13.70;7.07;;;9.40;99.90;;;;;;5017310;28;20057;-82
2022/03/27 06:43:25;;;;;;;12.52;7.30;;;9.60;99.90;;;;;;5019781;28;20105;-82
2022/03/27 06:45:51;;;;;;;11.40;7.28;;;9.80;99.90;;;;;;5020397;28;20141;-82
2022/03/27 06:48:18;;;;;;;12.55;7.97;;;9.90;99.90;;;;;;5016076;28;20050;-82
2022/03/27 06:50:50;;;;;;;14.98;7.20;;;10.10;99.90;;;;;;5017786;28;20053;-82
2022/03/27 06:53:20;;;;;;;15.15;8.10;;;10.20;99.90;;;;;;5019360;28;20113;-83
2022/03/27 06:55:47;;;;;;;13.80;7.70;;;10.40;99.90;;;;;;5015251;28;20057;-83
2022/03/27 06:58:14;;;;;;;13.05;8.32;;;10.60;99.90;;;;;;5015373;28;20046;-82
2022/03/27 07:03:26;;;;;;;14.93;7.63;;;10.80;99.90;;;;;;5025322;28;20038;-82
2022/03/27 07:05:53;;;;;;;9.20;7.10;;;10.80;99.90;;;;;;5027422;28;20062;-82
2022/03/27 07:08:21;;;;;;;12.93;8.23;;;10.90;99.90;;;;;;5035102;28;20110;-83
2022/03/27 07:10:49;;;;;;;14.57;7.72;;;11.10;99.90;;;;;;5034832;28;20132;-82
2022/03/27 07:13:18;;;;;;;13.63;7.38;;;11.50;99.90;;;;;;5034654;28;20056;-83
2022/03/27 07:15:47;;;;;;;11.45;7.97;;;11.60;99.90;;;;;;5036129;28;20052;-81
2022/03/27 07:18:16;;;;;;;11.80;7.13;;;11.60;99.90;;;;;;5039073;28;20498;-83
2022/03/27 07:20:46;;;;;;;11.52;7.53;;;12.00;99.90;;;;;;5038237;28;20052;-82
2022/03/27 07:23:22;;;;;;;13.05;7.95;;;12.20;99.90;;;;;;5043461;28;20115;-80
2022/03/27 07:25:53;;;;;;;11.27;7.07;;;12.40;99.90;;;;;;5043016;28;20136;-79
2022/03/27 07:28:21;;;;;;;11.02;7.88;;;12.60;99.90;;;;;;5041938;28;20049;-79
2022/03/27 07:30:49;;;;;;;10.57;7.18;;;13.10;99.90;;;;;;5040761;28;20085;-79
2022/03/27 07:33:17;;;;;;;17.13;7.78;;;13.50;99.90;;;;;;5042286;28;20446;-79
2022/03/27 07:35:44;;;;;;;9.80;7.18;;;14.40;99.90;;;;;;5040890;28;20534;-79
2022/03/27 07:38:11;;;;;;;16.88;7.10;;;15.50;99.90;;;;;;5040623;28;20113;-79
2022/03/27 07:40:39;;;;;;;21.20;8.00;;;16.20;99.90;;;;;;5042323;28;20128;-79
2022/03/27 07:43:05;;;;;;;24.75;8.30;;;16.40;99.90;;;;;;5039980;28;20072;-79
2022/03/27 07:45:33;;;;;;;25.27;8.40;;;16.80;99.90;;;;;;5040501;28;20551;-79
2022/03/27 07:48:00;;;;;;;22.38;9.57;;;17.30;99.00;;;;;;5040222;28;20491;-79
2022/03/27 07:50:30;;;;;;;21.10;9.05;;;18.30;95.70;;;;;;5041186;28;20060;-80
2022/03/27 07:53:01;;;;;;;22.73;9.27;;;18.10;94.80;;;;;;5039855;28;20053;-79
2022/03/27 07:55:28;;;;;;;15.80;9.02;;;18.20;93.40;;;;;;5046074;23;20050;-82
2022/03/27 07:57:56;;;;;;;16.90;10.38;;;18.80;93.50;;;;;;5019629;28;20069;-80
2022/03/27 08:00:23;;;;;;;14.60;10.63;;;19.60;91.20;;;;;;5020640;28;20483;-80
2022/03/27 08:02:51;;;;;;;21.27;10.93;;;20.00;90.00;;;;;;5019352;28;20057;-81
2022/03/27 08:05:19;;;;;;;19.20;11.80;;;20.50;90.00;;;;;;5017862;28;20076;-80
2022/03/27 08:07:46;;;;;;;21.52;11.43;;;21.10;84.90;;;;;;5018440;28;20483;-79
2022/03/27 08:10:15;;;;;;;17.00;12.15;;;21.40;84.00;;;;;;5016325;28;20077;-80
2022/03/27 08:12:43;;;;;;;15.48;11.73;;;21.90;84.00;;;;;;5017366;28;20411;-79
2022/03/27 08:15:10;;;;;;;15.77;11.02;;;22.80;79.00;;;;;;5016264;28;20050;-77
2022/03/27 08:17:36;;;;;;;23.63;11.43;;;22.90;76.90;;;;;;5016430;28;20188;-83
2022/03/27 08:20:04;;;;;;;16.85;11.13;;;22.40;77.00;;;;;;5017451;28;20050;-84
2022/03/27 08:22:33;;;;;;;15.77;11.20;;;22.00;76.70;;;;;;5019817;28;20468;-80
2022/03/27 08:25:00;;;;;;;14.45;10.48;;;21.80;76.80;;;;;;5019513;28;20050;-80
2022/03/27 08:27:27;;;;;;;13.48;9.82;;;22.60;75.90;;;;;;5017353;28;20133;-80
2022/03/27 08:29:54;;;;;;;12.60;9.68;;;23.90;74.00;;;;;;5018026;28;20085;-79
2022/03/27 08:32:21;;;;;;;12.27;9.77;;;23.60;70.40;;;;;;5015684;28;20129;-82
2022/03/27 08:34:48;;;;;;;14.38;9.43;;;23.00;71.40;;;;;;5016899;28;20081;-82
2022/03/27 08:37:16;;;;;;;12.45;8.90;;;23.10;71.00;;;;;;5015984;28;20046;-82
2022/03/27 08:39:47;;;;;;;13.77;8.68;;;23.10;70.50;;;;;;5020546;28;20053;-83
2022/03/27 08:42:16;;;;;;;12.57;9.05;;;23.30;70.90;;;;;;5018011;28;20046;-83
2022/03/27 08:44:43;;;;;;;11.85;9.52;;;22.70;70.60;;;;;;5018793;28;20419;-83
2022/03/27 08:47:38;;;;;;;11.07;9.52;;;21.90;73.20;;;;;;5020381;28;20106;-82
2022/03/27 08:50:47;;;;;;;14.07;8.90;;;22.80;72.00;;;;;;5019254;28;20574;-83
2022/03/27 08:53:14;;;;;;;10.57;8.38;;;23.30;71.10;;;;;;4964438;28;20103;-82
2022/03/27 08:55:46;;;;;;;10.63;9.13;;;23.10;71.00;;;;;;4964067;28;20050;-83
2022/03/27 08:58:14;;;;;;;12.60;9.60;;;24.10;69.20;;;;;;4993380;28;20065;-81
2022/03/27 09:00:41;;;;;;;11.45;8.85;;;24.10;67.30;;;;;;5021099;28;20080;-81
2022/03/27 09:03:08;;;;;;;12.65;9.07;;;24.40;67.00;;;;;;5022352;28;20291;-81
2022/03/27 09:05:39;;;;;;;10.73;8.70;;;25.20;65.40;;;;;;5021980;28;20069;-81
2022/03/27 09:08:09;;;;;;;10.65;9.40;;;26.00;64.30;;;;;;5021871;28;20470;-82
2022/03/27 09:10:40;;;;;;;11.30;8.93;;;26.00;64.60;;;;;;5019934;28;20530;-78
2022/03/27 09:13:12;;;;;;;9.20;8.30;;;25.20;63.20;;;;;;5021587;28;20057;-78
2022/03/27 09:15:40;;;;;;;10.50;8.10;;;24.30;63.80;;;;;;5020967;28;20629;-78
2022/03/27 09:18:08;;;;;;;9.60;8.60;;;24.80;64.80;;;;;;5015702;28;20565;-79
2022/03/27 09:20:53;;;;;;;9.27;8.02;;;25.20;63.20;;;;;;5015573;28;20042;-79
2022/03/27 09:23:24;;;;;;;9.85;7.53;;;23.90;62.60;;;;;;5019340;28;20081;-84
2022/03/27 09:25:58;;;;;;;29.48;24.58;;;22.80;67.10;;;;;;5016951;28;20046;-82
2022/03/27 09:28:37;;;;;;;16.48;12.57;;;21.60;68.70;;;;;;5021053;28;20077;-81
2022/03/27 09:31:25;;;;;;;11.27;9.80;;;20.40;73.30;;;;;;5026351;28;20076;-83
2022/03/27 09:34:00;;;;;;;11.02;8.30;;;20.00;75.60;;;;;;5037719;28;20095;-83
2022/03/27 09:36:41;;;;;;;16.50;13.88;;;20.10;76.00;;;;;;5040162;28;20081;-82
2022/03/27 09:39:22;;;;;;;10.38;8.70;;;19.40;77.40;;;;;;5039585;28;20046;-81
2022/03/27 09:41:52;;;;;;;10.35;8.63;;;19.80;77.70;;;;;;5034722;28;20052;-82
2022/03/27 09:44:28;;;;;;;12.27;9.98;;;19.90;76.90;;;;;;5031822;28;20045;-80
2022/03/27 09:46:57;;;;;;;9.93;8.65;;;19.50;78.40;;;;;;5042553;28;20045;-80
2022/03/27 09:49:34;;;;;;;13.95;9.13;;;19.20;79.30;;;;;;5042105;28;20409;-80
2022/03/27 09:52:10;;;;;;;11.90;8.95;;;18.70;81.40;;;;;;5040306;28;20045;-80
2022/03/27 09:55:00;;;;;;;12.50;8.52;;;18.60;81.20;;;;;;5040077;28;20053;-80
2022/03/27 09:57:36;;;;;;;13.13;8.65;;;18.40;81.70;;;;;;5040405;28;20057;-80
2022/03/27 10:00:13;;;;;;;9.07;7.97;;;18.30;83.30;;;;;;5041455;28;20133;-80
2022/03/27 10:02:44;;;;;;;13.57;8.07;;;18.70;83.00;;;;;;5039927;28;20399;-81
2022/03/27 10:05:12;;;;;;;9.52;8.50;;;19.50;81.00;;;;;;5040009;28;20418;-80
2022/03/27 10:07:43;;;;;;;11.05;8.35;;;19.70;78.70;;;;;;5038128;28;20080;-80
2022/03/27 10:10:15;;;;;;;14.88;11.27;;;19.80;78.90;;;;;;5036675;28;20049;-80
2022/03/27 10:12:45;;;;;;;12.88;9.95;;;19.10;82.00;;;;;;5038610;28;20046;-81
2022/03/27 10:15:14;;;;;;;12.40;10.10;;;19.00;83.10;;;;;;5038102;28;20061;-83
2022/03/27 10:17:45;;;;;;;13.80;10.57;;;18.80;84.40;;;;;;5035680;28;20137;-79
2022/03/27 10:20:14;;;;;;;12.68;10.13;;;18.80;85.00;;;;;;5035767;28;20467;-79
2022/03/27 10:22:42;;;;;;;13.68;10.43;;;18.70;84.60;;;;;;5036494;28;20105;-79
2022/03/27 10:25:11;;;;;;;13.70;10.88;;;18.70;85.00;;;;;;5037738;28;20478;-82
2022/03/27 10:27:40;;;;;;;13.85;11.18;;;18.20;86.40;;;;;;5039675;28;20080;-83
2022/03/27 10:30:10;;;;;;;13.93;10.82;;;17.90;87.80;;;;;;5039887;28;20450;-83
2022/03/27 10:32:39;;;;;;;16.77;11.50;;;17.80;89.40;;;;;;5036992;28;20113;-83
2022/03/27 10:35:36;;;;;;;15.55;11.20;;;18.00;88.40;;;;;;5040831;28;20566;-83
2022/03/27 10:38:24;;;;;;;13.52;10.48;;;17.70;89.80;;;;;;5051385;28;20041;-82
2022/03/27 10:41:20;;;;;;;15.57;10.57;;;17.70;90.30;;;;;;5036445;28;20045;-83
2022/03/27 10:44:02;;;;;;;14.82;11.55;;;17.60;90.50;;;;;;5039186;28;20049;-83
2022/03/27 10:46:29;;;;;;;15.13;12.10;;;17.70;90.60;;;;;;5037120;28;20145;-82
2022/03/27 10:49:14;;;;;;;15.95;12.45;;;17.40;91.10;;;;;;5036637;28;20080;-82
2022/03/27 10:51:46;;;;;;;15.25;12.05;;;16.80;93.10;;;;;;5042475;28;20486;-83
2022/03/27 10:54:19;;;;;;;16.15;12.55;;;16.80;93.60;;;;;;5041957;28;20041;-83
2022/03/27 10:56:48;;;;;;;18.58;12.07;;;16.80;94.00;;;;;;5042045;28;20136;-83
2022/03/27 10:59:22;;;;;;;15.82;12.60;;;17.10;93.80;;;;;;5042373;28;20065;-82
2022/03/27 11:01:54;;;;;;;15.13;11.25;;;17.00;93.50;;;;;;5040581;28;20046;-83
2022/03/27 11:04:35;;;;;;;16.83;11.48;;;16.80;94.60;;;;;;5040356;28;20115;-82
2022/03/27 11:07:21;;;;;;;15.95;11.50;;;17.50;93.60;;;;;;5041051;28;20053;-83
2022/03/27 11:09:48;;;;;;;13.65;11.55;;;17.10;93.70;;;;;;5038702;28;20049;-83
2022/03/27 11:12:24;;;;;;;13.38;10.65;;;16.90;93.80;;;;;;5024293;28;20054;-83
2022/03/27 11:15:05;;;;;;;13.13;10.40;;;17.10;93.80;;;;;;5021086;28;20065;-83
2022/03/27 11:17:49;;;;;;;14.18;11.10;;;17.50;93.70;;;;;;5021478;28;20053;-84
2022/03/27 11:20:23;;;;;;;37.17;30.90;;;17.70;92.70;;;;;;5026545;28;20411;-82
2022/03/27 11:22:55;;;;;;;12.25;10.48;;;17.80;92.20;;;;;;5022408;28;20045;-83
2022/03/27 11:25:38;;;;;;;14.55;11.13;;;17.60;92.30;;;;;;5021973;28;20069;-83
2022/03/27 11:28:15;;;;;;;11.90;9.50;;;18.10;92.60;;;;;;5023336;28;20046;-82
2022/03/27 11:30:48;;;;;;;11.70;8.98;;;18.60;91.60;;;;;;5021018;28;20141;-83
2022/03/27 11:33:30;;;;;;;14.23;10.43;;;19.30;90.50;;;;;;5021216;28;20058;-82
2022/03/27 11:36:13;;;;;;;14.30;10.73;;;19.10;87.60;;;;;;5023109;28;20327;-81
2022/03/27 11:38:52;;;;;;;13.77;10.45;;;18.40;90.00;;;;;;5030830;28;20064;-83
2022/03/27 11:41:26;;;;;;;15.80;9.75;;;18.10;90.00;;;;;;5009073;28;20046;-83
2022/03/27 11:43:54;;;;;;;13.18;9.68;;;17.70;90.50;;;;;;5033992;28;20509;-83
2022/03/27 11:46:29;;;;;;;11.70;8.80;;;17.60;91.00;;;;;;5028536;28;20053;-82
2022/03/27 11:49:01;;;;;;;15.85;11.52;;;17.60;91.00;;;;;;5023568;28;20050;-80
2022/03/27 11:51:28;;;;;;;16.90;13.93;;;17.60;90.60;;;;;;5028296;28;20068;-80
2022/03/27 11:53:56;;;;;;;11.15;9.45;;;17.70;90.50;;;;;;5044281;28;20084;-78
2022/03/27 11:56:24;;;;;;;10.68;8.50;;;17.90;90.20;;;;;;5024467;28;20462;-78
2022/03/27 11:59:05;;;;;;;16.23;9.68;;;17.80;90.30;;;;;;5034954;28;20072;-79
2022/03/27 12:01:32;;;;;;;12.48;9.05;;;18.10;90.10;;;;;;5039491;28;20387;-79
2022/03/27 12:04:00;;;;;;;11.10;9.13;;;18.50;88.00;;;;;;5042463;28;20063;-79
2022/03/27 12:06:28;;;;;;;11.82;8.43;;;18.20;87.80;;;;;;5039444;28;20091;-79
2022/03/27 12:08:57;;;;;;;12.63;9.13;;;17.90;88.90;;;;;;5038557;28;20069;-83
2022/03/27 12:11:26;;;;;;;11.32;8.25;;;18.40;88.30;;;;;;5039627;28;20079;-83
2022/03/27 12:13:53;;;;;;;10.73;9.30;;;18.60;87.70;;;;;;5038793;28;20514;-79
2022/03/27 12:16:25;;;;;;;11.73;8.38;;;18.20;87.70;;;;;;5040921;28;20395;-79
2022/03/27 12:18:53;;;;;;;9.07;7.70;;;18.00;88.00;;;;;;5042129;28;20065;-82
2022/03/27 12:21:22;;;;;;;9.55;8.23;;;18.00;88.70;;;;;;5041805;28;20087;-82
2022/03/27 12:23:52;;;;;;;12.38;8.25;;;17.80;88.70;;;;;;5042071;28;20072;-84
2022/03/27 12:29:49;;;;;;;10.98;8.35;;;17.30;90.10;;;;;;5043873;28;20049;-83
2022/03/27 12:32:19;;;;;;;12.15;8.80;;;17.30;90.60;;;;;;5042021;28;20049;-83
2022/03/27 12:34:48;;;;;;;10.63;8.88;;;17.20;91.40;;;;;;5042903;28;20560;-82
2022/03/27 12:37:26;;;;;;;12.85;8.52;;;17.60;91.40;;;;;;5041061;28;20144;-83
2022/03/27 12:39:52;;;;;;;12.25;8.60;;;17.40;90.80;;;;;;5042208;28;20045;-80
2022/03/27 12:42:35;;;;;;;10.30;7.68;;;17.50;91.40;;;;;;5042923;28;20145;-80
2022/03/27 12:45:17;;;;;;;8.40;7.10;;;18.20;90.40;;;;;;5042712;28;20052;-81
2022/03/27 12:47:59;;;;;;;12.00;9.38;;;18.50;89.10;;;;;;5042370;28;20045;-80
2022/03/27 12:50:36;;;;;;;17.17;11.15;;;18.40;89.20;;;;;;5042838;28;20081;-80
2022/03/27 12:53:10;;;;;;;12.57;9.48;;;18.40;88.90;;;;;;5042488;28;20453;-79
2022/03/27 12:55:46;;;;;;;;;;;18.50;87.40;;;;;;5041332;28;20076;-80
2022/03/27 12:58:16;;;;;;;10.35;8.38;;;18.60;86.90;;;;;;5042100;28;19921;-80
2022/03/27 13:00:45;;;;;;;9.80;7.53;;;18.40;87.20;;;;;;5041229;28;20076;-81
2022/03/27 13:03:22;;;;;;;8.10;7.20;;;17.90;88.70;;;;;;5041581;28;20057;-80